CheckWX is a tool to help pilots better visualize weather data.  It is not intended as a substitute for an official pre-flight weather briefing.

03:28:50 UTC

EGMD METAR
Lydd Airport
Lydd, Ashford, United Kingdom
Current

39 mins ago

EGMD 240250Z AUTO 03006KT 9999 NCD 04/03 Q1031
Observed
Mar-24 @ 02:50 UTC
Wind
  • 030° at 6 KTS
Visibility
10,000+ meters
Flight Rules
VFR
Cloud Levels
  • Clear skies
Temperature
C / 39°F
Dewpoint
C / 37°F
Humidity
93%
Altimeter
30.44" Hg
Pressure
1030.91 hPa
Previous

1 hour ago

EGMD 240220Z AUTO 03010KT 9999 FEW048/// 05/04 Q1031
Observed
Mar-24 @ 02:20 UTC
Wind
  • 030° at 10 KTS
Visibility
10,000+ meters
Flight Rules
VFR
Cloud Levels
  • Few at 4,800' AGL
Temperature
C / 41°F
Dewpoint
C / 39°F
Humidity
93%
Altimeter
30.44" Hg
Pressure
1030.91 hPa
Previous

2 hours ago

EGMD 240150Z AUTO 03008KT 9999 SCT048/// 05/04 Q1031
Observed
Mar-24 @ 01:50 UTC
Wind
  • 030° at 8 KTS
Visibility
10,000+ meters
Flight Rules
VFR
Cloud Levels
  • Scattered at 4,800' AGL
Temperature
C / 41°F
Dewpoint
C / 39°F
Humidity
93%
Altimeter
30.44" Hg
Pressure
1030.91 hPa